createdAt,value
2017-10-12T00:00:19.362Z,6.67
2017-10-12T00:02:47.463Z,5.80
2017-10-12T00:05:16.360Z,6.50
2017-10-12T00:07:44.455Z,6.47
2017-10-12T00:10:12.590Z,6.67
2017-10-12T00:12:40.723Z,6.27
2017-10-12T00:15:09.801Z,6.70
2017-10-12T00:17:37.894Z,7.23
2017-10-12T00:20:06.003Z,6.53
2017-10-12T00:22:40.355Z,7.47
2017-10-12T00:25:08.505Z,5.90
2017-10-12T00:27:48.163Z,7.43
2017-10-12T00:30:16.241Z,7.20
2017-10-12T00:32:45.228Z,6.20
2017-10-12T00:35:13.329Z,6.40
2017-10-12T00:37:41.503Z,6.80
2017-10-12T00:40:09.707Z,7.10
2017-10-12T00:42:37.924Z,7.17
2017-10-12T00:45:06.112Z,6.30
2017-10-12T00:47:53.119Z,6.67
2017-10-12T00:50:21.225Z,6.40
2017-10-12T00:52:49.373Z,6.30
2017-10-12T00:55:17.474Z,6.97
2017-10-12T00:57:45.603Z,5.80
2017-10-12T01:00:13.717Z,5.80
2017-10-12T01:02:41.904Z,6.03
2017-10-12T01:05:10.042Z,5.63
2017-10-12T01:07:40.095Z,6.03
2017-10-12T01:10:08.206Z,5.90
2017-10-12T01:12:36.452Z,5.20
2017-10-12T01:15:04.568Z,5.20
2017-10-12T01:17:32.678Z,6.07
2017-10-12T01:20:00.941Z,6.00
2017-10-12T01:22:29.091Z,5.73
2017-10-12T01:24:57.197Z,5.93
2017-10-12T01:27:26.086Z,6.60
2017-10-12T01:29:54.221Z,6.90
2017-10-12T01:32:22.433Z,6.40
2017-10-12T01:34:50.656Z,5.80
2017-10-12T01:37:19.516Z,6.90
2017-10-12T01:39:47.686Z,6.80
2017-10-12T01:42:16.586Z,6.47
2017-10-12T01:44:44.754Z,7.53
2017-10-12T01:47:12.883Z,6.60
2017-10-12T01:49:41.735Z,7.10
2017-10-12T01:52:12.606Z,6.63
2017-10-12T01:54:40.726Z,5.57
2017-10-12T01:57:09.651Z,7.03
2017-10-12T01:59:37.755Z,6.13
2017-10-12T02:02:06.655Z,6.10
2017-10-12T02:04:34.748Z,5.80
2017-10-12T02:07:02.863Z,6.30
2017-10-12T02:09:30.954Z,5.50
2017-10-12T02:11:59.118Z,5.20
2017-10-12T02:14:27.245Z,4.87
2017-10-12T02:16:55.395Z,5.00
2017-10-12T02:19:23.527Z,5.33
2017-10-12T02:21:51.702Z,5.70
2017-10-12T02:24:29.902Z,5.63
2017-10-12T02:26:58.113Z,4.60
2017-10-12T02:29:26.199Z,4.77
2017-10-12T02:31:54.339Z,6.17
2017-10-12T02:34:23.234Z,5.23
2017-10-12T02:36:51.359Z,5.00
2017-10-12T02:39:19.478Z,5.70
2017-10-12T02:41:47.746Z,5.20
2017-10-12T02:44:15.858Z,5.93
2017-10-12T02:46:44.058Z,5.60
2017-10-12T02:49:12.154Z,5.93
2017-10-12T02:51:43.372Z,5.50
2017-10-12T02:54:11.493Z,5.40
2017-10-12T02:56:39.646Z,6.10
2017-10-12T02:59:08.177Z,5.90
2017-10-12T03:01:36.287Z,5.73
2017-10-12T03:04:04.439Z,6.10
2017-10-12T03:06:32.558Z,5.33
2017-10-12T03:09:00.693Z,5.63
2017-10-12T03:11:35.446Z,6.20
2017-10-12T03:14:03.589Z,6.77
2017-10-12T03:16:38.550Z,6.17
2017-10-12T03:19:06.686Z,5.90
2017-10-12T03:21:34.801Z,6.27
2017-10-12T03:24:03.754Z,6.23
2017-10-12T03:26:31.925Z,6.03
2017-10-12T03:29:00.019Z,5.83
2017-10-12T03:31:28.178Z,5.87
2017-10-12T03:33:56.274Z,5.33
2017-10-12T03:36:30.354Z,5.77
2017-10-12T03:38:58.458Z,5.23
2017-10-12T03:41:27.404Z,5.20
2017-10-12T03:43:55.526Z,5.30
2017-10-12T03:46:42.698Z,5.60
2017-10-12T03:49:10.852Z,4.87
2017-10-12T03:51:45.407Z,5.03
2017-10-12T03:54:13.515Z,5.23
2017-10-12T03:56:41.770Z,5.50
2017-10-12T03:59:09.893Z,5.17
2017-10-12T04:04:36.339Z,4.80
2017-10-12T04:07:05.230Z,4.53
2017-10-12T04:09:36.978Z,5.47
2017-10-12T04:12:06.156Z,5.10
2017-10-12T04:14:35.149Z,5.20
2017-10-12T04:17:03.279Z,5.40
2017-10-12T04:19:31.380Z,4.37
2017-10-12T04:22:00.490Z,4.47
2017-10-12T04:24:28.574Z,4.23
2017-10-12T04:26:56.806Z,3.50
2017-10-12T04:29:24.938Z,4.20
2017-10-12T04:32:12.219Z,3.80
2017-10-12T04:34:45.953Z,4.17
2017-10-12T04:37:14.062Z,4.20
2017-10-12T04:39:49.677Z,3.83
2017-10-12T04:42:19.682Z,5.07
2017-10-12T04:44:47.761Z,3.70
2017-10-12T04:47:17.695Z,4.50
2017-10-12T04:49:45.790Z,3.73
2017-10-12T04:52:13.936Z,3.57
2017-10-12T04:54:42.054Z,4.70
2017-10-12T04:57:10.171Z,3.60
2017-10-12T04:59:38.275Z,3.30
2017-10-12T05:02:06.430Z,4.43
2017-10-12T05:04:35.526Z,3.00
2017-10-12T05:07:03.620Z,3.93
2017-10-12T05:09:31.780Z,3.97
2017-10-12T05:11:59.921Z,3.80
2017-10-12T05:14:28.237Z,4.73
2017-10-12T05:16:56.314Z,3.87
2017-10-12T05:19:24.476Z,3.60
2017-10-12T05:21:52.699Z,3.77
2017-10-12T05:24:20.911Z,3.20
2017-10-12T05:26:49.106Z,2.70
2017-10-12T05:29:17.244Z,3.37
2017-10-12T05:31:50.078Z,3.00
2017-10-12T05:34:18.189Z,3.00
2017-10-12T05:36:46.306Z,2.80
2017-10-12T05:39:14.433Z,3.27
2017-10-12T05:41:42.586Z,2.97
2017-10-12T05:44:10.838Z,2.93
2017-10-12T05:46:38.966Z,2.73
2017-10-12T05:49:07.103Z,3.10
2017-10-12T05:51:35.245Z,2.87
2017-10-12T05:54:04.182Z,2.40
2017-10-12T05:56:32.325Z,3.20
2017-10-12T05:59:01.079Z,2.90
2017-10-12T06:01:29.303Z,2.60
2017-10-12T06:03:58.329Z,2.67
2017-10-12T06:06:26.478Z,3.40
2017-10-12T06:08:54.686Z,4.00
2017-10-12T06:11:23.592Z,2.90
2017-10-12T06:13:54.472Z,2.50
2017-10-12T06:16:22.758Z,3.00
2017-10-12T06:18:55.828Z,3.00
2017-10-12T06:21:24.822Z,2.97
2017-10-12T06:23:52.990Z,2.67
2017-10-12T06:26:24.750Z,2.27
2017-10-12T06:28:53.569Z,2.67
2017-10-12T06:31:27.089Z,2.60
2017-10-12T06:33:59.943Z,2.70
2017-10-12T06:36:30.064Z,3.17
2017-10-12T06:38:58.268Z,2.47
2017-10-12T06:41:26.391Z,2.80
2017-10-12T06:43:54.573Z,2.97
2017-10-12T06:46:22.686Z,2.50
2017-10-12T06:48:50.896Z,3.70
2017-10-12T06:51:19.156Z,2.70
2017-10-12T06:53:49.248Z,2.80
2017-10-12T06:56:22.521Z,2.77
2017-10-12T06:58:50.776Z,2.93
2017-10-12T07:01:18.919Z,2.40
2017-10-12T07:03:47.102Z,2.50
2017-10-12T07:06:15.212Z,2.77
2017-10-12T07:08:48.146Z,2.63
2017-10-12T07:11:16.466Z,2.40
2017-10-12T07:13:46.003Z,2.70
2017-10-12T07:16:16.228Z,2.83
2017-10-12T07:18:44.516Z,2.63
2017-10-12T07:21:12.725Z,2.43
2017-10-12T07:23:41.642Z,2.43
2017-10-12T07:26:09.814Z,2.27
2017-10-12T07:28:42.777Z,3.40
2017-10-12T07:31:10.900Z,2.37
2017-10-12T07:33:39.830Z,2.57
2017-10-12T07:36:09.843Z,3.00
2017-10-12T07:38:37.987Z,2.10
2017-10-12T07:41:06.108Z,3.90
2017-10-12T07:43:35.282Z,2.60
2017-10-12T07:46:03.515Z,2.90
2017-10-12T07:48:32.195Z,2.77
2017-10-12T07:51:00.515Z,2.17
2017-10-12T07:53:30.626Z,2.70
2017-10-12T07:55:58.745Z,2.73
2017-10-12T07:58:27.718Z,2.80
2017-10-12T08:00:57.425Z,2.17
2017-10-12T08:03:25.543Z,2.77
2017-10-12T08:05:54.488Z,2.80
2017-10-12T08:08:22.663Z,2.87
2017-10-12T08:10:51.549Z,3.07
2017-10-12T08:13:20.655Z,2.57
2017-10-12T08:15:48.799Z,3.30
2017-10-12T08:18:18.420Z,4.50
2017-10-12T08:20:46.526Z,2.93
2017-10-12T08:23:16.127Z,3.33
2017-10-12T08:25:44.231Z,3.57
2017-10-12T08:28:12.381Z,3.03
2017-10-12T08:30:40.561Z,2.77
2017-10-12T08:33:09.674Z,3.73
2017-10-12T08:38:48.283Z,3.20
2017-10-12T08:41:16.429Z,3.60
2017-10-12T08:43:44.607Z,2.53
2017-10-12T08:46:12.767Z,2.93
2017-10-12T08:48:43.062Z,2.23
2017-10-12T08:51:11.823Z,3.90
2017-10-12T08:53:53.056Z,2.53
2017-10-12T08:56:21.139Z,2.60
2017-10-12T08:58:50.051Z,2.63
2017-10-12T09:01:18.919Z,3.40
2017-10-12T09:04:03.062Z,3.07
2017-10-12T09:06:35.394Z,2.63
2017-10-12T09:09:05.637Z,3.90
2017-10-12T09:11:33.739Z,3.07
2017-10-12T09:14:08.171Z,2.47
2017-10-12T09:16:37.054Z,3.00
2017-10-12T09:19:05.222Z,2.83
2017-10-12T09:21:44.484Z,3.43
2017-10-12T09:24:13.346Z,3.20
2017-10-12T09:26:41.467Z,3.00
2017-10-12T09:29:09.618Z,2.27
2017-10-12T09:31:37.763Z,3.40
2017-10-12T09:34:05.882Z,3.83
2017-10-12T09:36:34.801Z,3.60
2017-10-12T09:39:03.038Z,4.00
2017-10-12T09:41:32.899Z,3.27
2017-10-12T09:44:00.999Z,3.07
2017-10-12T09:46:29.160Z,2.70
2017-10-12T09:48:57.274Z,2.13
2017-10-12T09:51:25.367Z,3.00
2017-10-12T09:53:56.576Z,2.93
2017-10-12T09:56:25.454Z,2.40
2017-10-12T09:58:54.335Z,2.40
2017-10-12T10:01:22.885Z,2.80
2017-10-12T10:03:51.038Z,2.43
2017-10-12T10:06:19.173Z,2.57
2017-10-12T10:08:47.725Z,2.70
2017-10-12T10:11:15.853Z,3.33
2017-10-12T10:13:43.968Z,2.30
2017-10-12T10:16:12.118Z,3.30
2017-10-12T10:18:40.281Z,3.20
2017-10-12T10:21:10.404Z,2.23
2017-10-12T10:23:38.525Z,2.33
2017-10-12T10:26:06.697Z,2.53
2017-10-12T10:28:34.877Z,2.93
2017-10-12T10:31:04.764Z,2.43
2017-10-12T10:33:32.982Z,2.50
2017-10-12T10:36:01.828Z,2.83
2017-10-12T10:38:31.045Z,3.50
2017-10-12T10:41:01.657Z,2.53
2017-10-12T10:43:30.582Z,3.70
2017-10-12T10:46:01.417Z,3.23
2017-10-12T10:48:29.574Z,3.30
2017-10-12T10:51:11.870Z,2.97
2017-10-12T10:53:41.070Z,2.40
2017-10-12T10:56:09.461Z,2.83
2017-10-12T10:58:38.825Z,2.60
2017-10-12T11:01:07.792Z,3.30
2017-10-12T11:03:35.971Z,2.90
2017-10-12T11:06:05.197Z,2.80
2017-10-12T11:08:35.105Z,3.70
2017-10-12T11:11:03.228Z,3.27
2017-10-12T11:13:38.313Z,2.60
2017-10-12T11:16:06.429Z,2.97
2017-10-12T11:18:38.668Z,3.53
2017-10-12T11:21:07.527Z,2.53
2017-10-12T11:23:41.723Z,3.10
2017-10-12T11:26:09.927Z,3.53
2017-10-12T11:28:38.100Z,2.80
2017-10-12T11:31:07.124Z,2.83
2017-10-12T11:33:35.244Z,2.50
2017-10-12T11:36:03.451Z,3.07
2017-10-12T11:38:31.537Z,2.20
2017-10-12T11:41:02.584Z,2.90
2017-10-12T11:43:33.849Z,2.70
2017-10-12T11:46:02.304Z,2.83
2017-10-12T11:48:30.437Z,2.60
2017-10-12T11:50:58.622Z,2.73
2017-10-12T11:53:26.744Z,2.50
2017-10-12T11:55:55.064Z,4.00
2017-10-12T11:58:31.314Z,2.27
2017-10-12T12:00:59.397Z,2.60
2017-10-12T12:03:27.640Z,3.00
2017-10-12T12:05:55.947Z,3.23
2017-10-12T12:08:24.066Z,3.83
2017-10-12T12:10:52.191Z,2.80
2017-10-12T12:13:21.115Z,2.57
2017-10-12T12:15:49.451Z,2.40
2017-10-12T12:18:17.647Z,3.03
2017-10-12T12:20:50.358Z,2.50
2017-10-12T12:23:18.523Z,2.43
2017-10-12T12:25:46.747Z,2.43
2017-10-12T12:28:15.545Z,1.67
2017-10-12T12:30:43.663Z,2.97
2017-10-12T12:33:18.598Z,2.00
2017-10-12T12:35:57.320Z,1.57
2017-10-12T12:38:25.539Z,3.80
2017-10-12T12:40:55.504Z,2.90
2017-10-12T12:43:24.571Z,2.70
2017-10-12T12:45:53.715Z,2.10
2017-10-12T12:48:21.850Z,2.97
2017-10-12T12:50:49.986Z,2.40
2017-10-12T12:53:18.126Z,2.13
2017-10-12T12:55:46.226Z,1.47
2017-10-12T12:58:15.331Z,2.30
2017-10-12T13:00:43.491Z,2.50
2017-10-12T13:03:11.639Z,1.93
2017-10-12T13:05:39.775Z,2.57
2017-10-12T13:08:07.906Z,2.23
2017-10-12T13:10:36.429Z,2.30
2017-10-12T13:13:04.533Z,1.87
2017-10-12T13:15:32.615Z,2.90
2017-10-12T13:18:01.766Z,2.60
2017-10-12T13:20:29.921Z,1.87
2017-10-12T13:22:58.079Z,2.80
2017-10-12T13:25:26.364Z,2.43
2017-10-12T13:27:54.483Z,3.80
2017-10-12T13:30:22.642Z,1.60
2017-10-12T13:32:50.786Z,2.30
2017-10-12T13:35:19.686Z,2.33
2017-10-12T13:37:47.930Z,2.40
2017-10-12T13:40:16.895Z,2.53
2017-10-12T13:42:45.782Z,1.90
2017-10-12T13:45:13.947Z,1.97
2017-10-12T13:47:42.980Z,2.10
2017-10-12T13:50:24.490Z,2.07
2017-10-12T13:52:52.643Z,2.40
2017-10-12T13:55:21.047Z,2.60
2017-10-12T13:57:50.186Z,2.23
2017-10-12T14:00:18.426Z,2.07
2017-10-12T14:02:48.554Z,2.50
2017-10-12T14:05:16.676Z,2.30
2017-10-12T14:07:44.786Z,2.07
2017-10-12T14:10:18.170Z,2.30
2017-10-12T14:12:46.286Z,1.63
2017-10-12T14:15:14.404Z,1.97
2017-10-12T14:17:42.549Z,1.67
2017-10-12T14:20:10.811Z,1.60
2017-10-12T14:22:38.939Z,1.87
2017-10-12T14:25:07.083Z,1.63
2017-10-12T14:27:35.203Z,2.90
2017-10-12T14:30:03.326Z,1.53
2017-10-12T14:32:32.427Z,1.70
2017-10-12T14:35:00.549Z,2.03
2017-10-12T14:37:28.629Z,2.57
2017-10-12T14:39:56.750Z,2.27
2017-10-12T14:42:24.866Z,2.10
2017-10-12T14:44:53.079Z,2.50
2017-10-12T14:47:24.976Z,2.30
2017-10-12T14:49:53.967Z,2.77
2017-10-12T14:52:23.359Z,1.37
2017-10-12T14:54:52.256Z,1.70
2017-10-12T14:57:20.375Z,2.53
2017-10-12T14:59:48.478Z,1.70
2017-10-12T15:02:16.608Z,2.40
2017-10-12T15:04:45.699Z,1.60
2017-10-12T15:07:14.037Z,1.90
2017-10-12T15:09:42.149Z,2.70
2017-10-12T15:12:10.262Z,2.37
2017-10-12T15:14:44.015Z,2.37
2017-10-12T15:17:12.143Z,2.40
2017-10-12T15:19:40.360Z,2.00
2017-10-12T15:22:15.757Z,2.00
2017-10-12T15:24:43.963Z,1.93
2017-10-12T15:27:14.091Z,1.90
2017-10-12T15:29:42.183Z,2.87
2017-10-12T15:32:10.320Z,1.60
2017-10-12T15:34:38.423Z,2.10
2017-10-12T15:37:07.399Z,2.07
2017-10-12T15:39:35.497Z,1.90
2017-10-12T15:42:04.808Z,2.13
2017-10-12T15:44:32.905Z,2.30
2017-10-12T15:47:01.009Z,2.97
2017-10-12T15:49:29.128Z,1.50
2017-10-12T15:51:57.278Z,1.67
2017-10-12T15:54:25.515Z,1.90
2017-10-12T15:56:53.618Z,2.20
2017-10-12T15:59:21.769Z,1.80
2017-10-12T16:01:50.884Z,2.00
2017-10-12T16:04:19.142Z,1.80
2017-10-12T16:06:51.662Z,1.90
2017-10-12T16:09:23.461Z,2.13
2017-10-12T16:11:54.611Z,1.80
2017-10-12T16:14:22.764Z,2.50
2017-10-12T16:16:51.704Z,1.77
2017-10-12T16:19:19.847Z,3.03
2017-10-12T16:21:47.946Z,1.90
2017-10-12T16:24:17.447Z,2.67
2017-10-12T16:26:45.567Z,1.70
2017-10-12T16:29:13.699Z,1.80
2017-10-12T16:31:45.165Z,1.97
2017-10-12T16:34:17.430Z,2.73
2017-10-12T16:36:47.618Z,2.13
2017-10-12T16:39:15.734Z,1.93
2017-10-12T16:41:43.858Z,1.93
2017-10-12T16:44:13.194Z,2.30
2017-10-12T16:46:41.378Z,1.60
2017-10-12T16:49:09.493Z,2.00
2017-10-12T16:51:37.607Z,1.83
2017-10-12T16:54:10.657Z,1.80
2017-10-12T16:56:38.768Z,2.10
2017-10-12T16:59:06.899Z,2.00
2017-10-12T17:01:35.022Z,2.10
2017-10-12T17:04:04.582Z,2.10
2017-10-12T17:06:33.738Z,2.50
2017-10-12T17:17:37.644Z,2.10
2017-10-12T17:20:06.710Z,1.63
2017-10-12T17:22:34.820Z,1.80
2017-10-12T17:25:18.133Z,2.00
2017-10-12T17:27:46.338Z,2.40
2017-10-12T17:30:15.196Z,1.80
2017-10-12T17:32:43.433Z,1.60
2017-10-12T17:35:12.434Z,1.63
2017-10-12T17:37:40.538Z,2.03
2017-10-12T17:40:08.662Z,1.90
2017-10-12T17:42:36.792Z,2.60
2017-10-12T17:45:05.939Z,2.10
2017-10-12T17:47:34.075Z,1.83
2017-10-12T17:50:02.275Z,2.10
2017-10-12T17:52:32.429Z,1.87
2017-10-12T17:55:02.166Z,2.20
2017-10-12T17:57:30.303Z,2.93
2017-10-12T17:59:58.414Z,1.60
2017-10-12T18:02:26.536Z,1.73
2017-10-12T18:05:18.996Z,2.10
2017-10-12T18:07:47.092Z,1.67
2017-10-12T18:10:15.323Z,2.13
2017-10-12T18:12:43.489Z,1.87
2017-10-12T18:15:13.324Z,2.43
2017-10-12T18:17:41.454Z,2.30
2017-10-12T18:20:09.574Z,1.67
2017-10-12T18:22:38.503Z,1.80
2017-10-12T18:25:06.594Z,1.80
2017-10-12T18:27:39.345Z,1.50
2017-10-12T18:30:07.458Z,2.40
2017-10-12T18:32:35.570Z,2.10
2017-10-12T18:35:03.671Z,2.30
2017-10-12T18:37:31.786Z,1.70
2017-10-12T18:40:00.670Z,2.27
2017-10-12T18:42:29.547Z,1.80
2017-10-12T18:44:58.445Z,2.07
2017-10-12T18:47:27.451Z,2.40
2017-10-12T18:54:56.402Z,1.80
2017-10-12T18:57:24.605Z,1.57
2017-10-12T18:59:52.718Z,1.83
2017-10-12T19:02:20.846Z,1.90
2017-10-12T19:04:48.945Z,2.60
2017-10-12T19:07:17.095Z,2.10
2017-10-12T19:09:45.207Z,2.00
2017-10-12T19:12:13.339Z,1.80
2017-10-12T19:14:41.454Z,1.50
2017-10-12T19:17:10.399Z,2.00
2017-10-12T19:20:02.574Z,2.43
2017-10-12T19:22:30.694Z,2.13
2017-10-12T19:25:00.826Z,1.93
2017-10-12T19:27:28.918Z,2.37
2017-10-12T19:29:57.034Z,2.00
2017-10-12T19:32:25.151Z,2.10
2017-10-12T19:34:54.027Z,2.23
2017-10-12T19:37:27.758Z,2.13
2017-10-12T19:39:55.918Z,2.50
2017-10-12T19:42:24.070Z,2.30
2017-10-12T19:44:52.231Z,1.73
2017-10-12T19:47:21.339Z,1.80
2017-10-12T19:50:01.001Z,2.00
2017-10-12T19:52:29.146Z,2.17
2017-10-12T19:54:57.279Z,1.60
2017-10-12T19:57:25.405Z,1.63
2017-10-12T20:00:02.755Z,1.80
2017-10-12T20:02:31.273Z,2.00
2017-10-12T20:04:59.380Z,2.50
2017-10-12T20:07:27.516Z,1.90
2017-10-12T20:09:56.414Z,2.00
2017-10-12T20:12:24.504Z,1.70
2017-10-12T20:14:53.606Z,1.90
2017-10-12T20:17:33.583Z,1.90
2017-10-12T20:20:01.674Z,2.07
2017-10-12T20:22:29.778Z,2.63
2017-10-12T20:25:06.208Z,2.77
2017-10-12T20:27:34.320Z,3.10
2017-10-12T20:30:10.838Z,2.60
2017-10-12T20:32:39.770Z,2.07
2017-10-12T20:35:07.971Z,1.73
2017-10-12T20:37:36.980Z,2.17
2017-10-12T20:40:10.223Z,1.63
2017-10-12T20:42:38.378Z,1.80
2017-10-12T20:45:07.108Z,2.13
2017-10-12T20:47:35.275Z,1.50
2017-10-12T20:50:03.436Z,2.50
2017-10-12T20:52:31.543Z,1.67
2017-10-12T20:57:31.195Z,2.33
2017-10-12T21:00:00.083Z,2.40
2017-10-12T21:04:57.122Z,2.13
2017-10-12T21:07:25.258Z,2.03
2017-10-12T21:09:54.249Z,1.80
2017-10-12T21:12:23.135Z,2.10
2017-10-12T21:14:51.262Z,2.30
2017-10-12T21:17:23.330Z,1.87
2017-10-12T21:19:52.201Z,2.50
2017-10-12T21:22:21.058Z,2.30
2017-10-12T21:24:51.172Z,2.50
2017-10-12T21:27:20.171Z,2.37
2017-10-12T21:29:48.420Z,2.83
2017-10-12T21:32:17.303Z,2.00
2017-10-12T21:34:45.418Z,2.10
2017-10-12T21:37:13.719Z,2.33
2017-10-12T21:39:41.846Z,2.20
2017-10-12T21:42:09.952Z,1.70
2017-10-12T21:44:38.059Z,1.70
2017-10-12T21:47:07.155Z,2.47
2017-10-12T21:49:36.058Z,2.03
2017-10-12T21:52:11.695Z,1.63
2017-10-12T21:54:40.582Z,2.60
2017-10-12T21:57:09.594Z,1.90
2017-10-12T21:59:37.696Z,1.70
2017-10-12T22:02:05.782Z,1.93
2017-10-12T22:04:33.894Z,3.07
2017-10-12T22:07:02.368Z,1.60
2017-10-12T22:09:35.591Z,2.47
2017-10-12T22:12:03.709Z,2.30
2017-10-12T22:14:38.564Z,2.23
2017-10-12T22:17:06.695Z,2.03
2017-10-12T22:19:34.810Z,1.60
2017-10-12T22:22:02.920Z,2.90
2017-10-12T22:24:31.030Z,2.17
2017-10-12T22:27:00.037Z,2.20
2017-10-12T22:29:28.137Z,2.13
2017-10-12T22:31:56.242Z,2.27
2017-10-12T22:34:26.289Z,2.10
2017-10-12T22:36:54.401Z,1.70
2017-10-12T22:39:22.505Z,2.10
2017-10-12T22:41:50.609Z,2.37
2017-10-12T22:44:22.175Z,1.73
2017-10-12T22:46:50.272Z,2.40
2017-10-12T22:49:21.271Z,1.50
2017-10-12T22:51:49.378Z,2.20
2017-10-12T22:54:17.497Z,1.80
2017-10-12T22:56:46.357Z,2.43
2017-10-12T22:59:18.191Z,1.93
2017-10-12T23:01:46.297Z,2.20
2017-10-12T23:04:14.411Z,1.33
2017-10-12T23:06:42.531Z,1.80
2017-10-12T23:09:10.659Z,1.57
2017-10-12T23:11:39.542Z,1.50
2017-10-12T23:14:07.662Z,1.80
2017-10-12T23:16:35.767Z,1.90
2017-10-12T23:19:03.900Z,1.87
2017-10-12T23:21:32.088Z,1.97
2017-10-12T23:24:02.089Z,2.10
2017-10-12T23:26:30.186Z,1.60
2017-10-12T23:28:58.306Z,1.90
2017-10-12T23:31:32.047Z,1.57
2017-10-12T23:34:00.916Z,1.87
2017-10-12T23:36:42.538Z,2.20
2017-10-12T23:39:10.638Z,2.10
2017-10-12T23:41:38.729Z,1.67
2017-10-12T23:44:06.855Z,1.80
2017-10-12T23:49:36.613Z,1.90
2017-10-12T23:52:04.742Z,1.50
2017-10-12T23:54:36.851Z,2.07
2017-10-12T23:57:04.959Z,1.97
2017-10-12T23:59:50.291Z,1.83
